Seneimaru — JG5357 — position and weather

sailwx.info

Track history (hours):
 
Tides and Currents Weather Stations Pressure Air Temp Water Temp Dewpoint Dewpoint Depression Visibility Wind Speed Wind Dir Waves Ship Positions

Seneimaru

Last reported at 2018-Feb-17 23:44 UTC. Time now 2018-Feb-21 09:14 UTC.
Position N 34°21' E 134°26'.

Length 72 m; draft 5.9 m.

Type: Cargo ship. MMSI: 431100477.

Date/timePositionNaut miles runAvg speedWind from/ knotsBaromVisibWave heightAir tempDewpointWater temp
2018-Feb-17 23:44N 34°21' E 134°26'1911.3
2018-Feb-17 22:02N 34°09' E 134°44'211.2
2018-Feb-17 21:49N 34°07' E 134°46'411.2
2018-Feb-17 21:30N 34°04' E 134°49'711.0
2018-Feb-17 20:52N 33°59' E 134°55'910.0
2018-Feb-17 20:00N 33°52' E 135°00'109 4.7
2018-Feb-16 20:37N 34°38' E 137°00'92 9.8
2018-Feb-16 11:12N 34°32' E 138°52'310.4
2018-Feb-16 10:55N 34°33' E 138°55'6 9.4
2018-Feb-16 10:18N 34°36' E 139°01'411.3
2018-Feb-16 09:57N 34°39' E 139°04'910.3
2018-Feb-16 09:07N 34°45' E 139°12'210.3
2018-Feb-16 08:56N 34°46' E 139°14'34 9.9
2018-Feb-16 05:31N 35°09' E 139°44'011.2
2018-Feb-16 05:29N 35°09' E 139°44'510.8
2018-Feb-16 05:00N 35°14' E 139°46'510.6
2018-Feb-16 04:30N 35°19' E 139°43'510.2
2018-Feb-16 04:00N 35°24' E 139°43'611.0
2018-Feb-16 03:30N 35°28' E 139°47'3 5.9
2018-Feb-16 03:01N 35°30' E 139°44'1 1.8
2018-Feb-16 02:30N 35°30' E 139°43'0 0.0
2018-Feb-16 02:00N 35°30' E 139°43'0 0.0
2018-Feb-16 01:31N 35°30' E 139°43'0 0.0
2018-Feb-16 01:00N 35°30' E 139°43'0 0.0
2018-Feb-16 00:30N 35°30' E 139°43'0 0.0
2018-Feb-16 00:00N 35°30' E 139°43'0 0.0
2018-Feb-15 23:30N 35°30' E 139°43'0 0.0
2018-Feb-15 22:57N 35°30' E 139°43'0 1.1
2018-Feb-15 22:30N 35°30' E 139°43'3 5.7
2018-Feb-15 22:00N 35°27' E 139°43'4 8.9
2018-Feb-15 21:30N 35°23' E 139°46'5 9.7
2018-Feb-15 21:00N 35°18' E 139°45'510.5
2018-Feb-15 20:30N 35°13' E 139°47'510.4
2018-Feb-15 20:01N 35°08' E 139°45'710.2
2018-Feb-15 19:21N 35°03' E 139°39'2411.7
2018-Feb-15 17:16N 34°48' E 139°16'511.6
2018-Feb-15 16:52N 34°45' E 139°12'511.0
2018-Feb-15 16:26N 34°41' E 139°08'510.9
2018-Feb-15 16:00N 34°38' E 139°04'510.4
2018-Feb-15 15:30N 34°34' E 138°59'611.0
2018-Feb-15 14:55N 34°33' E 138°52'1112.1
2018-Feb-15 13:59N 34°32' E 138°38'611.9
2018-Feb-15 13:30N 34°32' E 138°31'611.7
2018-Feb-15 12:57N 34°32' E 138°24'612.1
2018-Feb-15 12:26N 34°32' E 138°16'49 3.9
2018-Feb-14 23:56N 34°44' E 137°19'710.1
2018-Feb-14 23:11N 34°42' E 137°10'210.6
2018-Feb-14 23:00N 34°42' E 137°07'610.4
2018-Feb-14 22:25N 34°39' E 137°01'90 9.4
2018-Feb-14 12:47N 34°32' E 138°51'3 7.5
2018-Feb-14 12:25N 34°32' E 138°54'3 6.4
2018-Feb-14 12:00N 34°33' E 138°57'5 6.9
2018-Feb-14 11:21N 34°36' E 139°01'4 7.3
2018-Feb-14 10:51N 34°38' E 139°04'4 7.6
2018-Feb-14 10:22N 34°41' E 139°07'4 7.3
2018-Feb-14 09:49N 34°44' E 139°11'3 7.5
2018-Feb-14 09:23N 34°46' E 139°14'26 6.7
2018-Feb-14 05:28N 35°04' E 139°38'7 9.0
2018-Feb-14 04:39N 35°09' E 139°44'110.1
2018-Feb-14 04:30N 35°10' E 139°45'510.0
2018-Feb-14 03:59N 35°15' E 139°46'510.3
2018-Feb-14 03:30N 35°19' E 139°43'510.0
2018-Feb-14 03:00N 35°24' E 139°43'510.7
2018-Feb-14 02:30N 35°29' E 139°47'3 6.1
2018-Feb-14 02:00N 35°30' E 139°43'1 1.3
2018-Feb-14 01:25N 35°30' E 139°43'0 0.0
2018-Feb-14 00:58N 35°30' E 139°43'0 0.0
2018-Feb-14 00:28N 35°30' E 139°43'0 0.0
2018-Feb-13 23:58N 35°30' E 139°43'0 0.0
2018-Feb-13 23:28N 35°30' E 139°43'0 0.0
2018-Feb-13 22:58N 35°30' E 139°43'0 0.0
2018-Feb-13 22:28N 35°30' E 139°43'0 0.0
2018-Feb-13 21:58N 35°30' E 139°43'0 0.0
2018-Feb-13 21:29N 35°30' E 139°43'1 2.2
2018-Feb-13 21:00N 35°29' E 139°43'5 9.0
2018-Feb-13 20:30N 35°25' E 139°45'510.0
2018-Feb-13 20:00N 35°20' E 139°44'510.9
2018-Feb-13 19:30N 35°15' E 139°47'611.4
2018-Feb-13 19:00N 35°10' E 139°45'611.0
2018-Feb-13 18:30N 35°05' E 139°41'3012.3
2018-Feb-13 16:06N 34°46' E 139°14'212.7
2018-Feb-13 15:55N 34°45' E 139°12'512.3
2018-Feb-13 15:29N 34°41' E 139°07'711.9
2018-Feb-13 14:54N 34°36' E 139°01'410.1
2018-Feb-13 14:30N 34°33' E 138°58'2112.1
2018-Feb-13 12:47N 34°33' E 138°33'76 2.1
2018-Feb-12 01:03N 34°39' E 137°01'90 7.0
2018-Feb-11 12:14N 34°32' E 138°50'1 4.5
2018-Feb-11 12:00N 34°32' E 138°52'2 4.1
2018-Feb-11 11:29N 34°32' E 138°54'3 3.8
2018-Feb-11 10:49N 34°32' E 138°57'9 5.3
2018-Feb-11 09:04N 34°40' E 139°03'2 7.2
2018-Feb-11 08:45N 34°42' E 139°05'5 7.5
2018-Feb-11 08:02N 34°47' E 139°08'37 8.3
2018-Feb-11 03:32N 35°10' E 139°44'110.5
2018-Feb-11 03:28N 35°10' E 139°45'510.2
2018-Feb-11 03:00N 35°15' E 139°46'510.6
2018-Feb-11 02:30N 35°19' E 139°43'510.1
2018-Feb-11 02:01N 35°24' E 139°43'510.6
2018-Feb-11 01:30N 35°28' E 139°47'3 5.8
2018-Feb-11 01:00N 35°30' E 139°44'1 1.5
2018-Feb-11 00:28N 35°30' E 139°43'0 0.0
2018-Feb-10 23:58N 35°30' E 139°43'0 0.0
2018-Feb-10 23:28N 35°30' E 139°43'0 0.0
2018-Feb-10 22:58N 35°30' E 139°43'0 0.0
2018-Feb-10 22:25N 35°30' E 139°43'0 0.0
2018-Feb-10 21:58N 35°30' E 139°43'0 0.0
2018-Feb-10 21:28N 35°30' E 139°43'0 0.0
2018-Feb-10 20:58N 35°30' E 139°43'0 0.0
2018-Feb-10 20:28N 35°30' E 139°43'0 0.0
2018-Feb-10 19:58N 35°30' E 139°43'0 0.0
2018-Feb-10 19:28N 35°30' E 139°43'0 0.0
2018-Feb-10 18:58N 35°30' E 139°43'0 0.0
2018-Feb-10 18:28N 35°30' E 139°43'0 0.0
2018-Feb-10 17:58N 35°30' E 139°43'0 0.0
2018-Feb-10 17:28N 35°30' E 139°43'0 0.0
2018-Feb-10 16:58N 35°30' E 139°43'0 0.0
2018-Feb-10 16:28N 35°30' E 139°43'0 0.0
2018-Feb-10 15:58N 35°30' E 139°43'0 0.0
2018-Feb-10 15:28N 35°30' E 139°43'0 0.0
2018-Feb-10 14:58N 35°30' E 139°43'0 0.0
2018-Feb-10 14:28N 35°30' E 139°43'0 0.0
2018-Feb-10 13:55N 35°30' E 139°43'0 0.0
2018-Feb-10 13:28N 35°30' E 139°43'0 0.0
2018-Feb-10 12:58N 35°30' E 139°43'0 0.0
2018-Feb-10 12:28N 35°30' E 139°43'0 0.0
2018-Feb-10 11:58N 35°30' E 139°43'0 0.0
2018-Feb-10 11:28N 35°30' E 139°43'0 0.0
2018-Feb-10 10:58N 35°30' E 139°43'0 0.0
2018-Feb-10 10:28N 35°30' E 139°43'0 0.0
2018-Feb-10 09:58N 35°30' E 139°43'0 0.0
2018-Feb-10 09:28N 35°30' E 139°43'0 0.0
2018-Feb-10 08:58N 35°30' E 139°43'0 0.0
2018-Feb-10 08:28N 35°30' E 139°43'0 0.0
2018-Feb-10 07:58N 35°30' E 139°43'0 0.0
2018-Feb-10 07:28N 35°30' E 139°43'0 0.0
2018-Feb-10 06:58N 35°30' E 139°43'0 0.0
2018-Feb-10 06:28N 35°30' E 139°43'0 0.0
2018-Feb-10 05:58N 35°30' E 139°43'0 0.0
2018-Feb-10 05:28N 35°30' E 139°43'0 0.0
2018-Feb-10 04:58N 35°30' E 139°43'0 0.0
2018-Feb-10 04:25N 35°30' E 139°43'0 0.0
2018-Feb-10 03:58N 35°30' E 139°43'0 0.0
2018-Feb-10 03:28N 35°30' E 139°43'0 0.0
2018-Feb-10 02:55N 35°30' E 139°43'0 0.0
2018-Feb-10 02:28N 35°30' E 139°43'0 0.0
2018-Feb-10 01:58N 35°30' E 139°43'0 0.0
2018-Feb-10 01:28N 35°30' E 139°43'0 0.0
2018-Feb-10 00:58N 35°30' E 139°43'0 0.0
2018-Feb-10 00:26N 35°30' E 139°43'1 2.3
2018-Feb-10 00:00N 35°29' E 139°43'3 5.7
2018-Feb-09 23:30N 35°26' E 139°43'3 4.7
2018-Feb-09 22:58N 35°24' E 139°44'0 0.1
2018-Feb-09 22:46N 35°24' E 139°44'2 0.6
2018-Feb-09 20:00N 35°22' E 139°44'5 0.1
2018-Feb-08 02:30N 35°18' E 139°44'10 9.8
2018-Feb-08 01:30N 35°27' E 139°46'3 5.9
2018-Feb-08 01:00N 35°30' E 139°45'2 3.2
2018-Feb-08 00:30N 35°30' E 139°43'0 0.0
2018-Feb-08 00:00N 35°30' E 139°43'  
Track history (hours):
 
Tides and Currents Weather Stations Pressure Air Temp Water Temp Dewpoint Dewpoint Depression Visibility Wind Speed Wind Dir Waves Ship Positions

Seneimaru

Last reported at 2018-Feb-17 23:44 UTC. Time now 2018-Feb-21 09:14 UTC.
Position N 34°21' E 134°26'.

Length 72 m; draft 5.9 m.

Type: Cargo ship. MMSI: 431100477.

Date/timePositionNaut miles runAvg speedWind from/ knotsBaromVisibWave heightAir tempDewpointWater temp
2018-Feb-17 23:44N 34°21' E 134°26'1911.3
2018-Feb-17 22:02N 34°09' E 134°44'211.2
2018-Feb-17 21:49N 34°07' E 134°46'411.2
2018-Feb-17 21:30N 34°04' E 134°49'711.0
2018-Feb-17 20:52N 33°59' E 134°55'910.0
2018-Feb-17 20:00N 33°52' E 135°00'109 4.7
2018-Feb-16 20:37N 34°38' E 137°00'92 9.8
2018-Feb-16 11:12N 34°32' E 138°52'310.4
2018-Feb-16 10:55N 34°33' E 138°55'6 9.4
2018-Feb-16 10:18N 34°36' E 139°01'411.3
2018-Feb-16 09:57N 34°39' E 139°04'910.3
2018-Feb-16 09:07N 34°45' E 139°12'210.3
2018-Feb-16 08:56N 34°46' E 139°14'34 9.9
2018-Feb-16 05:31N 35°09' E 139°44'011.2
2018-Feb-16 05:29N 35°09' E 139°44'510.8
2018-Feb-16 05:00N 35°14' E 139°46'510.6
2018-Feb-16 04:30N 35°19' E 139°43'510.2
2018-Feb-16 04:00N 35°24' E 139°43'611.0
2018-Feb-16 03:30N 35°28' E 139°47'3 5.9
2018-Feb-16 03:01N 35°30' E 139°44'1 1.8
2018-Feb-16 02:30N 35°30' E 139°43'0 0.0
2018-Feb-16 02:00N 35°30' E 139°43'0 0.0
2018-Feb-16 01:31N 35°30' E 139°43'0 0.0
2018-Feb-16 01:00N 35°30' E 139°43'0 0.0
2018-Feb-16 00:30N 35°30' E 139°43'0 0.0
2018-Feb-16 00:00N 35°30' E 139°43'0 0.0
2018-Feb-15 23:30N 35°30' E 139°43'0 0.0
2018-Feb-15 22:57N 35°30' E 139°43'0 1.1
2018-Feb-15 22:30N 35°30' E 139°43'3 5.7
2018-Feb-15 22:00N 35°27' E 139°43'4 8.9
2018-Feb-15 21:30N 35°23' E 139°46'5 9.7
2018-Feb-15 21:00N 35°18' E 139°45'510.5
2018-Feb-15 20:30N 35°13' E 139°47'510.4
2018-Feb-15 20:01N 35°08' E 139°45'710.2
2018-Feb-15 19:21N 35°03' E 139°39'2411.7
2018-Feb-15 17:16N 34°48' E 139°16'511.6
2018-Feb-15 16:52N 34°45' E 139°12'511.0
2018-Feb-15 16:26N 34°41' E 139°08'510.9
2018-Feb-15 16:00N 34°38' E 139°04'510.4
2018-Feb-15 15:30N 34°34' E 138°59'611.0
2018-Feb-15 14:55N 34°33' E 138°52'1112.1
2018-Feb-15 13:59N 34°32' E 138°38'611.9
2018-Feb-15 13:30N 34°32' E 138°31'611.7
2018-Feb-15 12:57N 34°32' E 138°24'612.1
2018-Feb-15 12:26N 34°32' E 138°16'49 3.9
2018-Feb-14 23:56N 34°44' E 137°19'710.1
2018-Feb-14 23:11N 34°42' E 137°10'210.6
2018-Feb-14 23:00N 34°42' E 137°07'610.4
2018-Feb-14 22:25N 34°39' E 137°01'90 9.4
2018-Feb-14 12:47N 34°32' E 138°51'3 7.5
2018-Feb-14 12:25N 34°32' E 138°54'3 6.4
2018-Feb-14 12:00N 34°33' E 138°57'5 6.9
2018-Feb-14 11:21N 34°36' E 139°01'4 7.3
2018-Feb-14 10:51N 34°38' E 139°04'4 7.6
2018-Feb-14 10:22N 34°41' E 139°07'4 7.3
2018-Feb-14 09:49N 34°44' E 139°11'3 7.5
2018-Feb-14 09:23N 34°46' E 139°14'26 6.7
2018-Feb-14 05:28N 35°04' E 139°38'7 9.0
2018-Feb-14 04:39N 35°09' E 139°44'110.1
2018-Feb-14 04:30N 35°10' E 139°45'510.0
2018-Feb-14 03:59N 35°15' E 139°46'510.3
2018-Feb-14 03:30N 35°19' E 139°43'510.0
2018-Feb-14 03:00N 35°24' E 139°43'510.7
2018-Feb-14 02:30N 35°29' E 139°47'3 6.1
2018-Feb-14 02:00N 35°30' E 139°43'1 1.3
2018-Feb-14 01:25N 35°30' E 139°43'0 0.0
2018-Feb-14 00:58N 35°30' E 139°43'0 0.0
2018-Feb-14 00:28N 35°30' E 139°43'0 0.0
2018-Feb-13 23:58N 35°30' E 139°43'0 0.0
2018-Feb-13 23:28N 35°30' E 139°43'0 0.0
2018-Feb-13 22:58N 35°30' E 139°43'0 0.0
2018-Feb-13 22:28N 35°30' E 139°43'0 0.0
2018-Feb-13 21:58N 35°30' E 139°43'0 0.0
2018-Feb-13 21:29N 35°30' E 139°43'1 2.2
2018-Feb-13 21:00N 35°29' E 139°43'5 9.0
2018-Feb-13 20:30N 35°25' E 139°45'510.0
2018-Feb-13 20:00N 35°20' E 139°44'510.9
2018-Feb-13 19:30N 35°15' E 139°47'611.4
2018-Feb-13 19:00N 35°10' E 139°45'611.0
2018-Feb-13 18:30N 35°05' E 139°41'3012.3
2018-Feb-13 16:06N 34°46' E 139°14'212.7
2018-Feb-13 15:55N 34°45' E 139°12'512.3
2018-Feb-13 15:29N 34°41' E 139°07'711.9
2018-Feb-13 14:54N 34°36' E 139°01'410.1
2018-Feb-13 14:30N 34°33' E 138°58'2112.1
2018-Feb-13 12:47N 34°33' E 138°33'76 2.1
2018-Feb-12 01:03N 34°39' E 137°01'90 7.0
2018-Feb-11 12:14N 34°32' E 138°50'1 4.5
2018-Feb-11 12:00N 34°32' E 138°52'2 4.1
2018-Feb-11 11:29N 34°32' E 138°54'3 3.8
2018-Feb-11 10:49N 34°32' E 138°57'9 5.3
2018-Feb-11 09:04N 34°40' E 139°03'2 7.2
2018-Feb-11 08:45N 34°42' E 139°05'5 7.5
2018-Feb-11 08:02N 34°47' E 139°08'37 8.3
2018-Feb-11 03:32N 35°10' E 139°44'110.5
2018-Feb-11 03:28N 35°10' E 139°45'510.2
2018-Feb-11 03:00N 35°15' E 139°46'510.6
2018-Feb-11 02:30N 35°19' E 139°43'510.1
2018-Feb-11 02:01N 35°24' E 139°43'510.6
2018-Feb-11 01:30N 35°28' E 139°47'3 5.8
2018-Feb-11 01:00N 35°30' E 139°44'1 1.5
2018-Feb-11 00:28N 35°30' E 139°43'0 0.0
2018-Feb-10 23:58N 35°30' E 139°43'0 0.0
2018-Feb-10 23:28N 35°30' E 139°43'0 0.0
2018-Feb-10 22:58N 35°30' E 139°43'0 0.0
2018-Feb-10 22:25N 35°30' E 139°43'0 0.0
2018-Feb-10 21:58N 35°30' E 139°43'0 0.0
2018-Feb-10 21:28N 35°30' E 139°43'0 0.0
2018-Feb-10 20:58N 35°30' E 139°43'0 0.0
2018-Feb-10 20:28N 35°30' E 139°43'0 0.0
2018-Feb-10 19:58N 35°30' E 139°43'0 0.0
2018-Feb-10 19:28N 35°30' E 139°43'0 0.0
2018-Feb-10 18:58N 35°30' E 139°43'0 0.0
2018-Feb-10 18:28N 35°30' E 139°43'0 0.0
2018-Feb-10 17:58N 35°30' E 139°43'0 0.0
2018-Feb-10 17:28N 35°30' E 139°43'0 0.0
2018-Feb-10 16:58N 35°30' E 139°43'0 0.0
2018-Feb-10 16:28N 35°30' E 139°43'0 0.0
2018-Feb-10 15:58N 35°30' E 139°43'0 0.0
2018-Feb-10 15:28N 35°30' E 139°43'0 0.0
2018-Feb-10 14:58N 35°30' E 139°43'0 0.0
2018-Feb-10 14:28N 35°30' E 139°43'0 0.0
2018-Feb-10 13:55N 35°30' E 139°43'0 0.0
2018-Feb-10 13:28N 35°30' E 139°43'0 0.0
2018-Feb-10 12:58N 35°30' E 139°43'0 0.0
2018-Feb-10 12:28N 35°30' E 139°43'0 0.0
2018-Feb-10 11:58N 35°30' E 139°43'0 0.0
2018-Feb-10 11:28N 35°30' E 139°43'0 0.0
2018-Feb-10 10:58N 35°30' E 139°43'0 0.0
2018-Feb-10 10:28N 35°30' E 139°43'0 0.0
2018-Feb-10 09:58N 35°30' E 139°43'0 0.0
2018-Feb-10 09:28N 35°30' E 139°43'0 0.0
2018-Feb-10 08:58N 35°30' E 139°43'0 0.0
2018-Feb-10 08:28N 35°30' E 139°43'0 0.0
2018-Feb-10 07:58N 35°30' E 139°43'0 0.0
2018-Feb-10 07:28N 35°30' E 139°43'0 0.0
2018-Feb-10 06:58N 35°30' E 139°43'0 0.0
2018-Feb-10 06:28N 35°30' E 139°43'0 0.0
2018-Feb-10 05:58N 35°30' E 139°43'0 0.0
2018-Feb-10 05:28N 35°30' E 139°43'0 0.0
2018-Feb-10 04:58N 35°30' E 139°43'0 0.0
2018-Feb-10 04:25N 35°30' E 139°43'0 0.0
2018-Feb-10 03:58N 35°30' E 139°43'0 0.0
2018-Feb-10 03:28N 35°30' E 139°43'0 0.0
2018-Feb-10 02:55N 35°30' E 139°43'0 0.0
2018-Feb-10 02:28N 35°30' E 139°43'0 0.0
2018-Feb-10 01:58N 35°30' E 139°43'0 0.0
2018-Feb-10 01:28N 35°30' E 139°43'0 0.0
2018-Feb-10 00:58N 35°30' E 139°43'0 0.0
2018-Feb-10 00:26N 35°30' E 139°43'1 2.3
2018-Feb-10 00:00N 35°29' E 139°43'3 5.7
2018-Feb-09 23:30N 35°26' E 139°43'3 4.7
2018-Feb-09 22:58N 35°24' E 139°44'0 0.1
2018-Feb-09 22:46N 35°24' E 139°44'2 0.6
2018-Feb-09 20:00N 35°22' E 139°44'5 0.1
2018-Feb-08 02:30N 35°18' E 139°44'10 9.8
2018-Feb-08 01:30N 35°27' E 139°46'3 5.9
2018-Feb-08 01:00N 35°30' E 139°45'2 3.2
2018-Feb-08 00:30N 35°30' E 139°43'0 0.0
2018-Feb-08 00:00N 35°30' E 139°43'  

Dump ship's entire track history